METAR Data
IDs: Format: Raw Decoded Include TAF

Data at: 0853 UTC 26 Jan 2020

KRPD 260835Z AUTO 25005KT 10SM OVC005 00/M01 A2993 RMK AO2 T10021013
KRPD 260815Z AUTO 29004KT 10SM OVC005 00/M01 A2993 RMK AO2 T00001012
KRPD 260755Z AUTO 27003KT 10SM OVC005 00/M01 A2993 RMK AO2 T00001012
KRPD 260735Z AUTO 28004KT 10SM OVC005 00/M01 A2993 RMK AO2 T00001011
KRPD 260715Z AUTO 29007KT 10SM OVC005 00/M01 A2993 RMK AO2 T00001011
KRPD 260655Z AUTO 26005KT 10SM OVC005 00/M01 A2993 RMK AO2 T00011010
KRPD 260635Z AUTO 28004KT 10SM OVC007 00/M01 A2993 RMK AO2 T00021010
KRPD 260615Z AUTO 29005KT 10SM OVC007 01/M01 A2993 RMK AO2 T00051008
KRPD 260555Z AUTO 29006KT 10SM OVC007 01/M01 A2993 RMK AO2 T00061007 10030 20006 400410006
KRPD 260535Z AUTO 30004KT 10SM OVC007 01/M01 A2993 RMK AO2 T00071007
KRPD 260515Z AUTO 31003KT 10SM OVC009 01/M01 A2992 RMK AO2 T00101007
KRPD 260455Z AUTO 32004KT 10SM OVC009 01/M01 A2992 RMK AO2 T00101007
KRPD 260435Z AUTO 28004KT 10SM OVC011 01/M01 A2992 RMK AO2 T00071011
KRPD 260415Z AUTO 25005KT 10SM OVC011 01/M01 A2992 RMK AO2 T00081012
KRPD 260355Z AUTO 27004KT 10SM OVC013 01/M01 A2992 RMK AO2 T00081012
KRPD 260335Z AUTO 28004KT 10SM OVC013 01/M01 A2992 RMK AO2 T00081013
KRPD 260315Z AUTO 25005KT 10SM OVC015 01/M01 A2992 RMK AO2 T00101014
KRPD 260255Z AUTO 26005KT 10SM BKN017 BKN041 01/M01 A2991 RMK AO2 T00121011
KRPD 260235Z AUTO 27003KT 10SM BKN039 01/00 A2991 RMK AO2 T00131002
KRPD 260215Z AUTO 00000KT 10SM OVC039 02/00 A2991 RMK AO2 T00200000
KRPD 260155Z AUTO 00000KT 10SM OVC039 02/00 A2991 RMK AO2 T00220002
KRPD 260135Z AUTO 00000KT 10SM OVC039 02/00 A2991 RMK AO2 T00220001
KRPD 260115Z AUTO 00000KT 10SM OVC039 02/00 A2990 RMK AO2 T00190000
KRPD 260055Z AUTO 00000KT 10SM BKN041 OVC120 02/00 A2991 RMK AO2 T00220000
KRPD 260035Z AUTO 28004KT 10SM SCT013 BKN041 OVC120 02/00 A2990 RMK AO2 T00240001
KRPD 260015Z AUTO 29004KT 10SM BKN013 OVC041 03/00 A2991 RMK AO2 T00260002
KRPD 252355Z AUTO 28005KT 10SM SCT013 SCT032 OVC041 03/00 A2991 RMK AO2 T00300002 10041 20030
KRPD 252335Z AUTO 30004KT 10SM SCT032 OVC041 03/00 A2990 RMK AO2 T00320000
KRPD 252315Z AUTO 29006KT 10SM OVC037 03/00 A2990 RMK AO2 T00340000
KRPD 252255Z AUTO 29004KT 10SM BKN036 OVC042 03/00 A2990 RMK AO2 T00340001
KRPD 252235Z AUTO 31004KT 10SM -SN SCT032 OVC039 03/00 A2989 RMK AO2 T00330002
KRPD 252215Z AUTO 33004KT 10SM OVC037 04/00 A2990 RMK AO2 T00350000
KRPD 252155Z AUTO 31005KT 10SM -SN SCT015 SCT027 OVC039 04/00 A2989 RMK AO2 T00350000
KRPD 252135Z AUTO 31005KT 10SM SCT013 BKN040 OVC050 04/00 A2990 RMK AO2 T00350001
KRPD 252115Z AUTO 32005KT 10SM BKN013 OVC055 04/00 A2989 RMK AO2 T00350002
KRPD 252055Z AUTO 29007KT 4SM -SN OVC011 04/01 A2990 RMK AO2 T00370006
KRPD 252035Z AUTO 29007KT 3SM -SN BKN011 OVC021 03/01 A2989 RMK AO2 T00340006
KRPD 252015Z AUTO 29008KT 10SM BKN013 OVC021 04/00 A2989 RMK AO2 T00360002
KRPD 251955Z AUTO 30008KT 10SM BKN013 OVC019 04/00 A2989 RMK AO2 T00370003
KRPD 251935Z AUTO 29010KT 10SM BKN013 OVC024 04/01 A2990 RMK AO2 T00400006
KRPD 251915Z AUTO 30006KT 280V340 10SM OVC013 04/01 A2990 RMK AO2 T00370005
KRPD 251855Z AUTO 29008KT 10SM OVC011 04/01 A2990 RMK AO2 T00370006
KRPD 251835Z AUTO 31007KT 10SM BKN011 OVC065 04/01 A2990 RMK AO2 T00390007
KRPD 251815Z AUTO 31006KT 10SM SCT011 OVC065 04/01 A2990 RMK AO2 T00400007
KRPD 251755Z AUTO 31006KT 10SM SCT011 SCT025 OVC065 04/01 A2990 RMK AO2 T00410007 10041 20022
KRPD 251735Z AUTO 33005KT 10SM OVC065 04/01 A2991 RMK AO2 T00390008
KRPD 251715Z AUTO 33006KT 10SM SCT014 OVC055 04/01 A2991 RMK AO2 T00360008
KRPD 251655Z AUTO 33006KT 10SM BKN012 OVC055 04/01 A2991 RMK AO2 T00350006
KRPD 251635Z AUTO 32006KT 10SM OVC012 04/01 A2991 RMK AO2 T00350005
KRPD 251615Z AUTO 32004KT 10SM OVC012 03/01 A2991 RMK AO2 T00310005
KRPD 251555Z AUTO 33005KT 5SM -SN OVC012 03/01 A2991 RMK AO2 T00270007
KRPD 251535Z AUTO 33006KT 7SM -SN OVC008 03/01 A2990 RMK AO2 T00260006
KRPD 251515Z AUTO 33007KT 10SM OVC008 03/00 A2990 RMK AO2 T00250003
KRPD 251455Z AUTO 32006KT 10SM OVC008 03/01 A2990 RMK AO2 T00250005
KRPD 251435Z AUTO 32006KT 10SM OVC008 03/01 A2990 RMK AO2 T00250006
KRPD 251415Z AUTO 33007KT 10SM OVC008 02/01 A2990 RMK AO2 T00240006
KRPD 251355Z AUTO 33008KT 10SM OVC008 03/01 A2990 RMK AO2 T00250006
KRPD 251335Z AUTO 33006KT 10SM OVC008 03/01 A2990 RMK AO2 T00250007
KRPD 251315Z AUTO 32007KT 10SM OVC008 02/01 A2988 RMK AO2 T00240007
KRPD 251255Z AUTO 33007KT 10SM OVC008 03/01 A2988 RMK AO2 T00250006
KRPD 251235Z AUTO 33006KT 10SM OVC008 03/01 A2988 RMK AO2 T00250006
KRPD 251215Z AUTO 33006KT 10SM OVC008 02/01 A2987 RMK AO2 T00230005
KRPD 251155Z AUTO 33005KT 10SM -SN BKN008 BKN021 OVC055 02/01 A2987 RMK AO2 T00220005 10035 20021
KRPD 251135Z AUTO 33006KT 10SM SCT008 SCT024 OVC055 02/01 A2987 RMK AO2 T00220005
KRPD 251115Z AUTO 32004KT 10SM BKN008 BKN020 OVC028 02/01 A2988 RMK AO2 T00210005
KRPD 251055Z AUTO 31004KT 10SM OVC006 02/01 A2988 RMK AO2 T00220006
KRPD 251035Z AUTO 31007KT 7SM -SN OVC006 02/01 A2988 RMK AO2 T00220009
KRPD 251015Z AUTO 30005KT 4SM -SN OVC006 02/01 A2988 RMK AO2 T00220011
KRPD 250955Z AUTO 29006KT 7SM OVC006 03/02 A2988 RMK AO2 T00270015
KRPD 250935Z AUTO 32007KT 10SM OVC006 03/02 A2988 RMK AO2 T00290016
KRPD 250915Z AUTO 32006KT 5SM BR OVC006 03/02 A2988 RMK AO2 T00300016
KRPD 250855Z AUTO 32006KT 7SM OVC008 03/02 A2988 RMK AO2 T00300015
KRPD 250835Z AUTO 33006KT 10SM OVC008 03/02 A2988 RMK AO2 T00310015
KRPD 250815Z AUTO 32003KT 5SM BR OVC008 03/02 A2988 RMK AO2 T00320020
KRPD 250755Z AUTO 33004KT 4SM -SN OVC008 03/02 A2989 RMK AO2 T00310020
KRPD 250735Z AUTO 33003KT 3SM -SN OVC008 03/02 A2988 RMK AO2 T00310020
KRPD 250715Z AUTO 34005KT 2 1/2SM -SN OVC008 03/02 A2989 RMK AO2 T00310020
KRPD 250655Z AUTO 33006KT 3SM -SN OVC008 03/02 A2989 RMK AO2 T00310020
KRPD 250635Z AUTO 33004KT 3SM -SN OVC008 03/02 A2991 RMK AO2 T00310020
KRPD 250615Z AUTO 34004KT 1 3/4SM -SN OVC010 03/02 A2990 RMK AO2 VIS 1 1/4V3 T00330017
KRPD 250555Z AUTO 33003KT 10SM OVC010 04/02 A2991 RMK AO2 T00350015 10041 20034 400430016
KRPD 250535Z AUTO 34005KT 10SM OVC012 04/02 A2991 RMK AO2 T00350015
KRPD 250515Z AUTO 33004KT 10SM OVC012 04/02 A2992 RMK AO2 T00350015
KRPD 250455Z AUTO 34005KT 10SM OVC012 04/01 A2992 RMK AO2 T00350014
KRPD 250435Z AUTO 35004KT 10SM OVC012 04/02 A2992 RMK AO2 T00350015
KRPD 250415Z AUTO 34005KT 10SM OVC012 04/01 A2992 RMK AO2 T00350014
KRPD 250355Z AUTO 36005KT 10SM OVC012 04/02 A2992 RMK AO2 T00350015
KRPD 250335Z AUTO 35004KT 10SM OVC012 04/02 A2993 RMK AO2 T00350015
KRPD 250315Z AUTO 35007KT 10SM OVC012 04/02 A2993 RMK AO2 T00350015
KRPD 250255Z AUTO 36006KT 10SM OVC010 04/02 A2994 RMK AO2 T00350015
KRPD 250235Z AUTO 36006KT 10SM -SN OVC010 04/02 A2994 RMK AO2 T00350016
KRPD 250215Z AUTO 36008KT 10SM -SN OVC012 04/02 A2994 RMK AO2 T00350018
KRPD 250155Z AUTO 36004KT 10SM -SN OVC012 04/02 A2994 RMK AO2 T00360019
KRPD 250135Z AUTO 35005KT 10SM -SN OVC012 04/02 A2994 RMK AO2 T00380019
KRPD 250115Z AUTO 34005KT 10SM OVC012 04/02 A2995 RMK AO2 T00380018
KRPD 250055Z AUTO 34005KT 10SM OVC014 04/02 A2995 RMK AO2 T00390019
KRPD 250035Z AUTO 35006KT 10SM OVC014 04/02 A2995 RMK AO2 T00400017
KRPD 250015Z AUTO 34005KT 10SM OVC016 04/02 A2995 RMK AO2 T00400019
KRPD 242355Z AUTO 34005KT 10SM OVC016 04/02 A2995 RMK AO2 T00400019 10043 20036
KRPD 242335Z AUTO 34004KT 10SM OVC016 04/02 A2995 RMK AO2 T00400020
KRPD 242315Z AUTO 35005KT 10SM OVC018 04/02 A2995 RMK AO2 T00410021
KRPD 242255Z AUTO 34005KT 10SM -SN OVC018 04/02 A2995 RMK AO2 T00420020
KRPD 242235Z AUTO 35005KT 10SM OVC018 04/02 A2995 RMK AO2 T00410020
KRPD 242215Z AUTO 36006KT 10SM BKN012 OVC020 04/02 A2995 RMK AO2 T00410022
KRPD 242155Z AUTO 36005KT 10SM UP BKN010 OVC020 04/02 A2995 RMK AO2 T00420023
KRPD 242135Z AUTO 36006KT 10SM BKN010 OVC018 04/03 A2995 RMK AO2 T00430025
KRPD 242115Z AUTO 36006KT 10SM SCT009 OVC015 04/03 A2995 RMK AO2 T00410025
KRPD 242055Z AUTO 01008KT 10SM -DZ SCT008 BKN016 OVC034 04/02 A2995 RMK AO2 T00410023